Flight Track Log - Related Links

Times and Time Zones

All times are in EDT time to prevent confusion due to time zone crossing. See the ASQ4283 flight status page for this flight to view local times or setup timezone preferences in your user account.

Time Position Orientation Groundspeed Altitude Reporting Facility
EDT Latitude Longitude Course Direction KTS MPH feet Rate Location/Type
Thu 06:42:00 AM 36.0523 -95.8743 169° South  Level Estimated
Thu 06:43:00 AM 35.9793 -95.8674 180° South  Level Estimated
Thu 06:44:00 AM 35.9063 -95.8606 180° South  Level Estimated
Thu 06:45:00 AM 35.8331 -95.8642 182° South  Level FlightAware Approximate
Thu 06:46:00 AM 35.7601 -95.8572 172° South  Level Estimated
Thu 06:47:00 AM 35.6871 -95.8503 208° Southwest  Level Estimated
Thu 06:48:00 AM 35.6141 -95.8433 202° Southwest  Level Estimated
Thu 06:49:00 AM 35.5411 -95.8364 197° South  Level Estimated
Thu 06:50:00 AM 35.4854 -95.8948 220° Southwest  Level FlightAware Approximate
Thu 06:51:00 AM 35.4124 -95.8869 195° South  Level Estimated
Thu 06:51:11 AM 36.1844 -95.8828 195° South 153 176 1,300  Level Kansas City Center
Thu 06:52:00 AM 35.3395 -95.8792 197° South  Level Estimated
Thu 06:52:23 AM 36.1197 -95.8886 184° South 205 236 3,600  Level Kansas City Center
Thu 06:53:00 AM 35.2743 -95.9506 222° Southwest  Level FlightAware Approximate
Thu 06:53:05 AM 36.0808 -95.9008 194° South 206 237 4,600  Level Kansas City Center
Thu 06:54:00 AM 35.1872 -95.9400 197° South  Level Estimated
Thu 06:54:05 AM 36.0131 -95.9233 195° South 238 274 6,300  Level Kansas City Center
Thu 06:55:00 AM 35.1180 -96.0054 218° Southwest  Level FlightAware Approximate
Thu 06:55:06 AM 35.9378 -95.9475 195° South 267 307 8,100  Level Kansas City Center
Thu 06:56:00 AM 35.0311 -95.9935 195° South  Level Estimated
Thu 06:56:06 AM 35.8575 -95.9736 195° South 290 334 10,100  Level Kansas City Center
Thu 06:57:06 AM 35.7731 -96.0006 195° South 307 353 10,900 843 Climbing Kansas City Center
Thu 06:58:07 AM 35.6758 -96.0311 194° South 346 398 11,800 992 Climbing Kansas City Center
Thu 06:59:07 AM 35.5769 -96.0644 195° South 363 418 12,900 1,091 Climbing Kansas City Center
Thu 07:00:08 AM 35.4814 -96.0947 194° South 375 432 14,000 1,082 Climbing Kansas City Center
Thu 07:01:09 AM 35.3778 -96.1281 195° South 381 438 15,100 1,091 Climbing Kansas City Center
Thu 07:02:09 AM 35.2753 -96.1606 195° South 380 437 16,200 1,091 Climbing Kansas City Center
Thu 07:03:10 AM 35.1694 -96.1942 195° South 388 447 17,300 1,091 Climbing Kansas City Center
Thu 07:04:10 AM 35.0650 -96.2278 195° South 388 447 18,400 1,148 Climbing Kansas City Center
Thu 07:05:05 AM 34.9547 -96.2658 196° South 387 445 19,500 1,148 Climbing Fort Worth Center
Thu 07:06:05 AM 34.8486 -96.2978 194° South 392 451 20,600 1,100 Climbing Fort Worth Center
Thu 07:07:05 AM 34.7425 -96.3319 195° South 397 457 21,700 1,100 Climbing Fort Worth Center
Thu 07:08:05 AM 34.6364 -96.3661 195° South 397 457 22,800 1,100 Climbing Fort Worth Center
Thu 07:09:05 AM 34.5303 -96.4003 195° South 397 457 23,900 1,100 Climbing Fort Worth Center
Thu 07:10:05 AM 34.4261 -96.4342 195° South 397 457 25,000 1,100 Climbing Fort Worth Center
Thu 07:11:05 AM 34.3222 -96.4656 194° South 397 457 26,100 1,100 Climbing Fort Worth Center
Thu 07:12:05 AM 34.2158 -96.4994 195° South 397 457 27,200 1,100 Climbing Fort Worth Center
Thu 07:13:05 AM 34.1097 -96.5331 195° South 397 457 28,300 1,100 Climbing Fort Worth Center
Thu 07:14:05 AM 34.0056 -96.5642 194° South 397 457 29,400 1,100 Climbing Fort Worth Center
Thu 07:15:05 AM 33.8994 -96.6003 196° South 397 457 30,500 1,100 Climbing Fort Worth Center
Thu 07:16:05 AM 33.7994 -96.6186 189° South 388 447 31,600 1,050 Climbing Fort Worth Center
Thu 07:17:05 AM 33.7056 -96.6319 187° South 382 440 32,600 1,100 Climbing Fort Worth Center
Thu 07:18:05 AM 33.5847 -96.6531 188° South 390 449 33,800 700 Climbing Fort Worth Center
Thu 07:19:05 AM 33.4867 -96.6689 188° South 397 457 34,000 100 Climbing Fort Worth Center
Thu 07:20:05 AM 33.3614 -96.6897 188° South 417 480 34,000  Level Fort Worth Center
Thu 07:21:05 AM 33.2364 -96.7081 187° South 448 516 34,000  Level Fort Worth Center
Thu 07:22:05 AM 33.1114 -96.7314 189° South 459 528 34,000  Level Fort Worth Center
Thu 07:23:05 AM 32.9736 -96.7572 189° South 492 566 34,000  Level Fort Worth Center
Thu 07:24:05 AM 32.8525 -96.7706 185° South 497 572 34,000  Level Fort Worth Center
Thu 07:25:05 AM 32.7106 -96.7567 175° South 475 547 34,000  Level Fort Worth Center
Thu 07:26:05 AM 32.5978 -96.7353 171° South 469 540 34,000  Level Fort Worth Center
Thu 07:27:05 AM 32.4578 -96.7067 170° South 464 534 34,000  Level Fort Worth Center
Thu 07:28:05 AM 32.3447 -96.6831 170° South 464 534 34,000  Level Fort Worth Center
Thu 07:29:05 AM 32.2089 -96.6547 170° South 469 540 34,000  Level Fort Worth Center
Thu 07:30:05 AM 32.0814 -96.6289 170° South 464 534 34,000 -50 Level Fort Worth Center
Thu 07:31:05 AM 31.9561 -96.6031 170° South 469 540 33,900 -650 Descending Fort Worth Center
Thu 07:32:05 AM 31.8264 -96.5772 170° South 469 540 32,700 -1,279 Descending Fort Worth Center
Thu 07:33:07 AM 31.6950 -96.5486 170° South 463 533 31,300 -829 Descending Houston Center
Thu 07:34:08 AM 31.5628 -96.5228 171° South 473 544 31,000 -148 Descending Houston Center
Thu 07:35:09 AM 31.4367 -96.4831 165° South 463 533 31,000  Level Houston Center
Thu 07:36:10 AM 31.3206 -96.4244 157° South 451 519 31,000  Level Houston Center
Thu 07:37:11 AM 31.2072 -96.3500 151° Southeast 454 522 31,000 -738 Level Houston Center
Thu 07:38:12 AM 31.0961 -96.2772 151° Southeast 452 520 29,500 -2,508 Descending Houston Center
Thu 07:39:13 AM 30.9817 -96.2036 151° Southeast 460 529 25,900 -3,463 Descending Houston Center
Thu 07:40:15 AM 30.8697 -96.1306 151° Southeast 456 525 22,400 -3,415 Descending Houston Center
Thu 07:41:16 AM 30.7611 -96.0600 151° Southeast 444 511 18,900 -3,457 Descending Houston Center
Thu 07:41:47 AM 30.7064 -96.0253 151° Southeast 420 483 17,100 -2,951 Descending Houston Center
Thu 07:42:17 AM 30.6700 -96.0014 151° Southeast 417 480 15,900 -2,176 Descending Houston Center
Thu 07:43:18 AM 30.5739 -95.9400 151° Southeast 399 459 13,800 -1,770 Descending Houston Center
Thu 07:44:19 AM 30.4817 -95.8806 151° Southeast 382 440 12,300 -885 Descending Houston Center
Thu 07:45:20 AM 30.3978 -95.8056 142° Southeast 379 436 12,000 -148 Descending Houston Center
Thu 07:46:21 AM 30.3200 -95.7225 137° Southeast 381 438 12,000 -738 Level Houston Center
Thu 07:47:22 AM 30.2372 -95.6369 138° Southeast 331 381 10,500 -1,574 Descending Houston Center
Thu 07:48:23 AM 30.1769 -95.5750 138° Southeast 298 343 8,800 -1,672 Descending Houston Center

Login

Don't have an account? Register now (free) for customized features, flight alerts, and more!